Time;durP1;ratioP1;P1;durP2;ratioP2;P2;SDS_P1;SDS_P2;PMS_P1;PMS_P2;Temp;Humidity;BMP_temperature;BMP_pressure;BME280_temperature;BME280_humidity;BME280_pressure;Samples;Min_cycle;Max_cycle;Signal;HPM_P1;HPM_P2
2021/10/09 00:01:24;;;;;;;5.03;2.80;;;;;;;23.89;17.14;99650.94;5081715;28;20036;-80
2021/10/09 00:03:50;;;;;;;4.07;2.25;;;;;;;23.41;17.49;99651.53;5082893;28;20045;-80
2021/10/09 00:09:39;;;;;;;6.53;2.88;;;;;;;24.05;16.84;99651.41;5074027;28;20075;-80
2021/10/09 00:12:05;;;;;;;5.07;2.50;;;;;;;24.29;16.56;99651.88;5074627;28;20086;-80
2021/10/09 00:14:31;;;;;;;4.55;2.10;;;;;;;24.36;16.52;99649.09;5082026;28;20028;-80
2021/10/09 00:16:57;;;;;;;5.35;2.45;;;;;;;24.46;16.71;99645.47;5081451;28;20119;-80
2021/10/09 00:19:23;;;;;;;7.25;2.58;;;;;;;24.51;16.29;99645.09;5083879;28;20051;-80
2021/10/09 00:25:12;;;;;;;8.27;2.40;;;;;;;24.60;16.06;99637.88;5075140;28;20405;-80
2021/10/09 00:27:38;;;;;;;4.38;2.20;;;;;;;24.66;16.25;99639.09;5072664;28;20032;-80
2021/10/09 00:30:06;;;;;;;3.13;2.03;;;;;;;24.28;16.57;99644.66;5078000;28;20386;-80
2021/10/09 00:32:32;;;;;;;7.85;2.70;;;;;;;24.22;16.62;99637.84;5076858;28;20031;-80
2021/10/09 00:34:58;;;;;;;5.70;2.63;;;;;;;24.00;16.97;99637.75;5083189;28;20548;-80
2021/10/09 00:37:49;;;;;;;5.22;2.47;;;;;;;23.87;17.17;99639.31;5087480;28;20421;-80
2021/10/09 00:43:19;;;;;;;7.82;2.55;;;;;;;23.70;17.02;99640.03;5074749;28;19930;-80
2021/10/09 01:02:38;;;;;;;5.38;2.90;;;;;;;23.17;17.72;99627.72;5076227;28;20578;-80
2021/10/09 01:05:06;;;;;;;6.50;3.20;;;;;;;22.91;17.58;99630.72;5074927;28;20036;-80
2021/10/09 01:07:32;;;;;;;8.00;2.95;;;;;;;22.95;17.47;99625.94;5084525;28;20028;-80
2021/10/09 01:09:59;;;;;;;7.70;3.22;;;;;;;23.20;17.15;99626.91;5088425;28;20154;-80
2021/10/09 01:12:27;;;;;;;7.43;2.72;;;;;;;23.10;17.47;99624.88;5083573;28;20025;-80
2021/10/09 01:14:53;;;;;;;5.28;3.33;;;;;;;22.27;17.99;99618.94;5080998;28;20428;-80
2021/10/09 01:17:19;;;;;;;7.35;3.72;;;;;;;22.05;18.77;99628.31;5073703;28;20040;-80
2021/10/09 01:19:45;;;;;;;5.82;3.15;;;;;;;22.47;17.96;99623.16;5090592;28;20032;-80
2021/10/09 01:22:11;;;;;;;5.55;2.30;;;;;;;22.84;17.54;99619.47;5080412;28;20031;-80
2021/10/09 01:24:38;;;;;;;5.18;2.80;;;;;;;23.02;17.59;99617.59;5076930;28;20020;-80
2021/10/09 01:27:05;;;;;;;5.80;2.83;;;;;;;22.50;17.77;99616.75;5082913;28;20085;-80
2021/10/09 01:29:32;;;;;;;7.13;2.90;;;;;;;22.80;17.31;99611.03;5087964;28;20044;-80
2021/10/09 01:31:59;;;;;;;4.18;2.55;;;;;;;23.10;17.00;99608.88;5085226;28;20111;-80
2021/10/09 01:34:27;;;;;;;5.75;2.95;;;;;;;23.14;17.19;99614.47;5082827;28;20110;-80
2021/10/09 01:36:54;;;;;;;6.65;2.95;;;;;;;22.93;17.10;99609.53;5080703;28;20024;-80
2021/10/09 01:39:20;;;;;;;5.13;2.22;;;;;;;23.08;17.09;99608.44;5078150;28;20036;-80
2021/10/09 01:41:48;;;;;;;3.80;1.73;;;;;;;23.23;16.90;99609.31;5087731;28;20024;-79
2021/10/09 01:44:15;;;;;;;4.95;2.67;;;;;;;23.28;16.54;99601.38;5088256;28;20047;-79
2021/10/09 01:46:42;;;;;;;5.55;2.42;;;;;;;23.15;16.98;99599.28;5081804;28;20043;-80
2021/10/09 01:49:09;;;;;;;7.95;2.78;;;;;;;23.07;16.88;99601.25;5080341;28;20119;-80
2021/10/09 01:51:35;;;;;;;3.55;2.58;;;;;;;23.16;16.77;99596.09;5080763;28;20036;-78
2021/10/09 01:54:01;;;;;;;5.22;2.58;;;;;;;23.21;17.01;99595.72;5088016;28;20032;-79
2021/10/09 01:56:28;;;;;;;11.35;2.85;;;;;;;23.17;16.88;99599.69;5076699;28;20040;-79
2021/10/09 01:58:54;;;;;;;4.53;2.63;;;;;;;23.29;16.79;99599.38;5077994;28;20531;-79
2021/10/09 02:01:20;;;;;;;4.95;2.88;;;;;;;23.27;16.83;99596.94;5080005;28;20107;-80
2021/10/09 02:03:48;;;;;;;4.00;2.50;;;;;;;23.48;16.73;99596.28;5082597;28;20035;-80
2021/10/09 02:06:15;;;;;;;5.10;2.33;;;;;;;23.32;17.09;99606.97;5087228;28;20392;-80
2021/10/09 02:08:42;;;;;;;6.35;2.25;;;;;;;23.40;16.74;99597.44;5084193;28;20085;-79
2021/10/09 02:11:12;;;;;;;5.80;2.22;;;;;;;23.31;16.48;99599.78;5079528;28;20042;-79
2021/10/09 02:16:24;;;;;;;7.20;2.53;;;;;;;23.09;16.70;99598.03;5079580;28;20036;-80
2021/10/09 02:24:43;;;;;;;7.10;2.30;;;;;;;23.00;16.80;99604.00;5085706;28;20090;-79
2021/10/09 02:27:09;;;;;;;5.70;2.58;;;;;;;22.95;16.97;99606.34;5078737;28;20047;-80
2021/10/09 02:29:35;;;;;;;4.60;2.45;;;;;;;22.63;17.21;99604.13;5080494;28;20115;-80
2021/10/09 02:32:01;;;;;;;5.88;2.85;;;;;;;22.70;17.30;99608.97;5083522;28;20125;-80
2021/10/09 02:34:27;;;;;;;5.95;2.63;;;;;;;22.92;17.09;99605.13;5067953;28;20040;-80
2021/10/09 02:36:53;;;;;;;5.60;2.75;;;;;;;22.84;16.79;99605.47;5064839;28;20222;-80
2021/10/09 02:39:19;;;;;;;3.78;2.30;;;;;;;22.90;17.29;99621.53;5060774;28;20130;-80
2021/10/09 02:41:46;;;;;;;8.02;3.40;;;;;;;22.45;17.55;99616.34;5061271;28;20040;-80
2021/10/09 02:44:12;;;;;;;3.08;2.05;;;;;;;22.57;17.22;99613.22;5061220;28;20042;-79
2021/10/09 02:46:38;;;;;;;6.43;2.63;;;;;;;22.64;17.00;99608.53;5073943;28;20107;-80
2021/10/09 02:49:05;;;;;;;5.35;2.97;;;;;;;22.66;17.28;99610.94;5086444;28;20028;-80
2021/10/09 02:51:31;;;;;;;5.13;2.38;;;;;;;22.68;17.01;99600.16;5082497;28;20123;-80
2021/10/09 02:53:57;;;;;;;5.03;2.78;;;;;;;22.76;17.10;99607.41;5088604;28;20111;-80
2021/10/09 02:56:23;;;;;;;4.93;3.00;;;;;;;22.58;17.19;99617.63;5073414;28;20103;-79
2021/10/09 02:58:49;;;;;;;3.97;2.40;;;;;;;22.83;16.64;99617.84;5081789;28;20056;-80
2021/10/09 03:01:15;;;;;;;6.03;2.67;;;;;;;22.87;16.62;99613.09;5083257;28;20063;-80
2021/10/09 03:03:41;;;;;;;5.60;2.85;;;;;;;22.68;16.88;99609.34;5089315;28;20063;-80
2021/10/09 03:06:07;;;;;;;6.72;2.78;;;;;;;22.89;16.99;99602.31;5088130;28;20441;-80
2021/10/09 03:08:33;;;;;;;5.70;2.55;;;;;;;22.88;16.77;99607.09;5087028;28;20047;-79
2021/10/09 03:10:59;;;;;;;4.28;2.55;;;;;;;23.03;16.25;99603.22;5076320;28;20024;-79
2021/10/09 03:13:25;;;;;;;5.38;2.83;;;;;;;22.96;16.37;99621.97;5086402;28;20032;-80
2021/10/09 03:15:51;;;;;;;5.20;3.08;;;;;;;22.94;16.44;99622.34;5085924;28;20489;-80
2021/10/09 03:18:17;;;;;;;5.30;2.42;;;;;;;22.75;16.20;99624.59;5084968;28;20089;-80
2021/10/09 03:20:43;;;;;;;5.55;2.55;;;;;;;22.92;16.37;99618.34;5081472;28;20040;-80
2021/10/09 03:23:10;;;;;;;5.90;2.83;;;;;;;23.06;16.27;99624.84;5077250;28;20070;-80
2021/10/09 03:25:36;;;;;;;7.03;4.70;;;;;;;23.06;16.09;99627.63;5081535;28;20115;-80
2021/10/09 03:28:02;;;;;;;8.18;3.15;;;;;;;23.03;16.02;99624.81;5091672;28;20035;-80
2021/10/09 03:30:28;;;;;;;6.47;3.05;;;;;;;23.00;16.04;99623.59;5081644;28;20040;-80
2021/10/09 03:32:54;;;;;;;4.53;3.08;;;;;;;22.87;15.99;99619.50;5085151;28;20081;-80
2021/10/09 03:35:20;;;;;;;5.68;2.38;;;;;;;22.95;15.91;99623.97;5090443;28;20032;-80
2021/10/09 03:37:46;;;;;;;5.35;3.03;;;;;;;22.71;16.17;99620.97;5085267;28;20107;-80
2021/10/09 03:40:16;;;;;;;5.65;2.60;;;;;;;22.53;16.32;99621.59;5085274;28;20041;-80
2021/10/09 03:42:48;;;;;;;5.47;2.78;;;;;;;22.69;16.27;99624.97;5084172;28;20078;-79
2021/10/09 03:45:21;;;;;;;5.72;3.28;;;;;;;22.74;16.10;99618.19;5087346;28;20545;-80
2021/10/09 03:47:57;;;;;;;7.60;2.88;;;;;;;22.80;15.89;99613.84;5085793;28;20028;-80
2021/10/09 03:52:22;;;;;;;8.05;2.60;;;;;;;22.52;16.39;99617.19;5080345;28;20128;-80
2021/10/09 03:53:09;;;;;;;4.90;2.67;;;;;;;22.44;16.43;99626.72;5083801;28;20394;-80
2021/10/09 03:55:35;;;;;;;6.57;2.53;;;;;;;22.35;16.80;99617.03;5079908;28;20020;-79
2021/10/09 03:58:01;;;;;;;3.75;2.58;;;;;;;22.17;16.84;99622.44;5086278;28;20028;-79
2021/10/09 04:00:27;;;;;;;6.35;2.97;;;;;;;22.19;16.91;99622.06;5085595;28;20028;-80
2021/10/09 04:02:53;;;;;;;4.05;2.58;;;;;;;21.93;17.50;99629.41;5091171;28;20028;-80
2021/10/09 04:05:19;;;;;;;4.15;2.38;;;;;;;21.81;17.38;99635.22;5087389;28;20028;-79
2021/10/09 04:07:45;;;;;;;5.50;2.80;;;;;;;22.15;17.24;99626.84;5088048;28;20039;-79
2021/10/09 04:10:11;;;;;;;6.00;2.70;;;;;;;22.44;16.99;99626.72;5091057;28;20469;-79
2021/10/09 04:12:37;;;;;;;6.40;2.67;;;;;;;22.36;17.21;99630.63;5094237;28;20382;-79
2021/10/09 04:15:04;;;;;;;7.97;2.53;;;;;;;22.33;17.32;99639.00;5091350;28;20080;-79
2021/10/09 04:17:30;;;;;;;4.80;2.60;;;;;;;21.95;17.71;99634.59;5087632;28;20036;-79
2021/10/09 04:19:56;;;;;;;5.47;2.63;;;;;;;22.01;17.92;99633.06;5077170;28;20066;-79
2021/10/09 04:22:22;;;;;;;5.45;3.08;;;;;;;22.04;17.85;99635.09;5083560;28;20090;-79
2021/10/09 04:24:48;;;;;;;6.18;3.40;;;;;;;21.76;17.89;99637.53;5076193;28;20494;-79
2021/10/09 04:27:14;;;;;;;9.10;3.38;;;;;;;21.17;18.66;99644.72;5090403;28;20024;-79
2021/10/09 04:29:40;;;;;;;9.60;3.95;;;;;;;20.51;19.92;99645.22;5083330;28;20033;-79
2021/10/09 04:32:06;;;;;;;7.45;3.13;;;;;;;20.82;19.32;99637.78;5090030;28;20031;-79
2021/10/09 04:34:32;;;;;;;7.72;3.08;;;;;;;20.91;19.33;99647.47;5085005;28;20113;-79
2021/10/09 04:36:59;;;;;;;5.93;2.83;;;;;;;21.23;19.08;99642.41;5091498;28;20505;-79
2021/10/09 04:39:25;;;;;;;6.18;2.78;;;;;;;21.27;18.75;99644.06;5081795;28;20028;-79
2021/10/09 04:41:51;;;;;;;7.95;3.72;;;;;;;21.25;19.32;99645.63;5077718;28;20077;-79
2021/10/09 04:44:18;;;;;;;12.55;3.90;;;;;;;20.97;19.70;99639.59;5081882;28;20052;-79
2021/10/09 04:46:44;;;;;;;6.18;3.08;;;;;;;21.23;19.22;99643.22;5079558;28;20024;-80
2021/10/09 04:49:10;;;;;;;6.05;3.47;;;;;;;21.09;19.28;99647.78;5080993;28;20034;-80
2021/10/09 04:51:36;;;;;;;5.47;3.05;;;;;;;21.16;19.13;99648.72;5078256;28;20166;-79
2021/10/09 04:54:03;;;;;;;6.40;3.67;;;;;;;20.31;20.13;99657.63;5079780;28;20132;-79
2021/10/09 04:56:29;;;;;;;5.25;2.90;;;;;;;20.89;19.69;99655.41;5085468;28;20040;-80
2021/10/09 04:58:55;;;;;;;6.70;3.72;;;;;;;20.62;20.17;99667.75;5078534;28;20035;-80
2021/10/09 05:01:21;;;;;;;7.00;3.10;;;;;;;20.22;20.70;99662.63;5086974;28;20103;-80
2021/10/09 05:03:47;;;;;;;8.23;3.50;;;;;;;20.65;20.08;99664.22;5079385;28;20081;-80
2021/10/09 05:06:13;;;;;;;5.68;3.05;;;;;;;20.91;20.03;99667.00;5078141;28;20036;-79
2021/10/09 05:08:39;;;;;;;7.47;3.78;;;;;;;19.87;20.96;99676.66;5077241;28;20183;-80
2021/10/09 05:11:05;;;;;;;10.90;4.20;;;;;;;18.72;22.09;99667.22;5087780;28;20432;-80
2021/10/09 05:13:31;;;;;;;11.50;5.60;;;;;;;18.29;23.40;99673.66;5078382;28;20554;-80
2021/10/09 05:15:57;;;;;;;6.68;3.97;;;;;;;19.19;22.20;99667.16;5082805;28;20032;-80
2021/10/09 05:18:23;;;;;;;7.70;4.00;;;;;;;18.63;22.86;99675.75;5077848;28;20024;-79
2021/10/09 05:20:49;;;;;;;9.65;4.72;;;;;;;17.46;24.29;99687.50;5081785;28;20482;-80
2021/10/09 05:23:16;;;;;;;5.95;3.42;;;;;;;17.67;24.09;99682.59;5089493;28;20378;-80
2021/10/09 05:25:43;;;;;;;7.72;4.78;;;;;;;17.14;25.23;99686.53;5080587;28;20024;-79
2021/10/09 05:28:14;;;;;;;8.45;4.20;;;;;;;18.06;24.50;99688.47;5080751;28;20016;-79
2021/10/09 05:30:46;;;;;;;7.80;4.18;;;;;;;18.73;23.11;99685.53;5078596;28;20460;-79
2021/10/09 05:35:46;;;;;;;9.32;5.35;;;;;;;16.34;27.07;99695.66;5080138;28;20119;-79
2021/10/09 05:38:12;;;;;;;8.95;4.95;;;;;;;18.16;24.67;99688.75;5100991;28;20527;-79
2021/10/09 05:40:38;;;;;;;9.48;5.53;;;;;;;19.30;23.27;99682.94;5091654;28;20500;-79
2021/10/09 05:43:04;;;;;;;12.43;5.25;;;;;;;19.84;22.59;99684.94;5076476;28;20031;-79
2021/10/09 05:45:30;;;;;;;12.27;5.72;;;;;;;19.60;22.56;99686.03;5082073;28;20452;-79
2021/10/09 05:47:57;;;;;;;6.95;4.18;;;;;;;20.75;21.85;99685.91;5084722;28;20154;-79
2021/10/09 05:50:28;;;;;;;11.88;5.10;;;;;;;20.98;21.41;99683.88;5077095;28;20384;-80
2021/10/09 05:55:53;;;;;;;8.63;5.05;;;;;;;21.45;21.08;99694.59;5093313;28;20028;-79
2021/10/09 05:58:32;;;;;;;12.57;5.30;;;;;;;21.00;21.32;99684.34;5080971;28;20033;-79
2021/10/09 06:42:35;;;;;;;9.40;4.15;;;;;;;20.93;23.31;99730.88;5078951;28;20047;-80
2021/10/09 07:01:22;;;;;;;13.15;5.85;;;;;;;21.43;22.63;99740.88;5078482;28;20083;-80
2021/10/09 07:03:48;;;;;;;9.88;5.80;;;;;;;21.30;22.20;99738.31;5081613;28;20397;-80
2021/10/09 07:06:16;;;;;;;11.27;4.68;;;;;;;20.21;23.99;99750.22;5077957;28;20039;-80
2021/10/09 07:08:42;;;;;;;10.40;5.63;;;;;;;21.90;22.70;99749.59;5082292;28;20031;-80
2021/10/09 07:11:09;;;;;;;9.60;5.70;;;;;;;23.20;21.16;99739.81;5076547;28;20562;-80
2021/10/09 07:13:35;;;;;;;9.93;5.38;;;;;;;23.48;20.84;99741.28;5082855;28;20043;-80
2021/10/09 07:16:01;;;;;;;10.10;5.85;;;;;;;24.25;19.62;99746.53;5070229;28;20033;-80
2021/10/09 07:18:27;;;;;;;11.82;4.57;;;;;;;24.81;18.84;99749.50;5079285;28;20485;-80
2021/10/09 07:20:53;;;;;;;11.68;5.22;;;;;;;25.03;19.26;99747.50;5075798;28;20111;-80
2021/10/09 07:23:21;;;;;;;7.70;4.85;;;;;;;25.17;18.76;99748.31;5075592;28;20029;-80
2021/10/09 07:25:48;;;;;;;10.38;5.43;;;;;;;24.64;18.85;99762.25;5078201;28;20257;-80
2021/10/09 07:28:14;;;;;;;11.32;7.97;;;;;;;22.41;21.61;99763.81;5073157;28;20021;-80
2021/10/09 07:30:40;;;;;;;8.13;5.55;;;;;;;23.21;20.93;99757.44;5077652;28;20033;-80
2021/10/09 07:33:06;;;;;;;8.23;5.30;;;;;;;21.42;22.01;99764.44;5076877;28;20040;-80
2021/10/09 07:35:32;;;;;;;9.73;5.75;;;;;;;20.79;22.74;99770.53;5074017;28;20072;-79
2021/10/09 07:37:58;;;;;;;11.10;6.40;;;;;;;20.67;22.70;99763.13;5077218;28;20551;-80
2021/10/09 07:40:24;;;;;;;11.02;6.40;;;;;;;20.10;23.90;99763.13;5081328;28;20493;-80
2021/10/09 07:42:50;;;;;;;11.60;5.68;;;;;;;21.37;23.32;99761.94;5082610;28;20055;-80
2021/10/09 07:45:16;;;;;;;8.40;4.95;;;;;;;19.36;24.54;99760.66;5077609;28;20029;-80
2021/10/09 07:47:43;;;;;;;16.35;7.28;;;;;;;18.49;25.29;99769.94;5073989;28;20035;-79
2021/10/09 07:50:10;;;;;;;13.38;7.05;;;;;;;17.00;27.64;99772.06;5078034;28;20032;-83
2021/10/09 07:52:36;;;;;;;14.05;5.53;;;;;;;19.26;25.17;99771.16;5076472;28;20043;-80
2021/10/09 07:55:02;;;;;;;12.13;5.85;;;;;;;19.38;24.80;99773.06;5080414;28;20036;-80
2021/10/09 07:57:28;;;;;;;13.52;7.20;;;;;;;18.17;26.20;99784.91;5080757;28;20516;-80
2021/10/09 07:59:55;;;;;;;14.90;7.43;;;;;;;18.49;25.81;99783.84;5078155;28;20476;-80
2021/10/09 08:02:21;;;;;;;14.13;6.78;;;;;;;17.33;27.57;99777.53;5074829;28;20028;-80
2021/10/09 08:04:47;;;;;;;9.52;5.38;;;;;;;17.83;26.98;99777.94;5077462;28;20035;-80
2021/10/09 08:07:13;;;;;;;12.82;5.93;;;;;;;18.06;26.79;99781.00;5081216;28;20414;-80
2021/10/09 08:09:39;;;;;;;10.25;6.22;;;;;;;19.31;25.27;99768.13;5075513;28;20028;-80
2021/10/09 08:12:05;;;;;;;16.15;6.05;;;;;;;19.43;24.42;99770.00;5075497;28;20370;-80
2021/10/09 08:14:31;;;;;;;11.70;6.00;;;;;;;21.20;22.73;99763.28;5078136;28;20102;-80
2021/10/09 08:16:57;;;;;;;10.88;5.43;;;;;;;19.39;24.30;99769.13;5079433;28;20055;-80
2021/10/09 08:19:23;;;;;;;11.02;6.07;;;;;;;18.56;25.12;99770.16;5081677;28;20059;-80
2021/10/09 08:21:50;;;;;;;15.75;6.88;;;;;;;17.01;26.92;99765.34;5080413;28;20161;-80
2021/10/09 08:36:03;;;;;;;18.98;6.43;;;;;;;17.10;26.75;99774.41;5004874;28;20137;-80
2021/10/09 08:41:13;;;;;;;13.52;7.53;;;;;;;17.09;26.80;99764.44;5078931;28;20040;-79
2021/10/09 08:43:43;;;;;;;12.63;5.82;;;;;;;16.82;26.94;99747.66;5073370;28;20028;-80
2021/10/09 08:46:09;;;;;;;12.67;6.90;;;;;;;17.08;27.31;99764.81;5083371;28;20341;-80
2021/10/09 08:48:44;;;;;;;13.02;5.90;;;;;;;17.53;26.07;99754.38;5078604;28;20029;-80
2021/10/09 08:51:10;;;;;;;12.93;6.18;;;;;;;19.58;25.08;99757.22;5083076;28;20032;-80
2021/10/09 08:53:43;;;;;;;14.63;6.38;;;;;;;18.37;25.60;99763.59;5077362;28;20028;-80
2021/10/09 08:56:26;;;;;;;17.77;5.85;;;;;;;19.15;24.87;99747.00;5076464;28;20028;-80
2021/10/09 08:59:30;;;;;;;11.82;6.22;;;;;;;20.34;23.55;99748.13;5074517;28;20032;-80
2021/10/09 09:02:15;;;;;;;12.45;6.30;;;;;;;19.65;23.20;99743.47;5070757;28;20032;-80
2021/10/09 09:07:46;;;;;;;21.17;6.13;;;;;;;20.48;23.48;99749.22;5071319;28;20048;-80
2021/10/09 09:27:10;;;;;;;13.48;6.20;;;;;;;20.22;22.80;99734.31;5072693;28;20090;-80
2021/10/09 09:40:38;;;;;;;7.80;4.43;;;;;;;20.43;22.98;99729.97;5080601;28;20086;-81
2021/10/09 09:43:05;;;;;;;11.55;5.70;;;;;;;19.01;24.42;99733.56;5083251;28;20081;-81
2021/10/09 09:45:32;;;;;;;9.55;5.60;;;;;;;19.17;24.49;99728.78;5081336;28;20034;-81
2021/10/09 09:48:02;;;;;;;10.75;5.05;;;;;;;20.98;22.38;99730.56;5077568;28;20033;-81
2021/10/09 09:50:29;;;;;;;12.18;6.45;;;;;;;18.25;24.38;99736.66;5080597;28;20027;-81
2021/10/09 09:52:58;;;;;;;11.27;5.70;;;;;;;18.45;25.16;99735.69;5080925;28;20108;-80
2021/10/09 09:55:25;;;;;;;10.23;5.35;;;;;;;18.65;25.63;99733.81;5077801;28;20025;-81
2021/10/09 09:57:52;;;;;;;11.50;5.00;;;;;;;19.39;24.94;99720.97;5074741;28;20031;-82
2021/10/09 10:00:19;;;;;;;11.57;5.22;;;;;;;20.02;24.06;99730.72;5078644;28;20031;-82
2021/10/09 10:02:55;;;;;;;11.15;5.47;;;;;;;20.60;22.78;99723.94;5076143;28;20049;-81
2021/10/09 10:05:24;;;;;;;9.02;4.60;;;;;;;20.42;22.07;99717.19;5077067;28;20072;-81
2021/10/09 10:07:51;;;;;;;8.70;4.45;;;;;;;18.92;23.50;99721.81;5078253;28;20024;-81
2021/10/09 10:10:19;;;;;;;11.60;4.60;;;;;;;19.37;24.50;99724.09;5074422;28;20098;-81
2021/10/09 10:12:47;;;;;;;8.82;5.13;;;;;;;19.59;23.80;99708.69;5078320;28;20036;-81
2021/10/09 10:15:14;;;;;;;10.10;5.95;;;;;;;18.61;25.29;99721.78;5076323;28;20385;-82
2021/10/09 10:17:42;;;;;;;7.38;5.30;;;;;;;21.52;22.06;99711.47;5079891;28;20040;-82
2021/10/09 10:20:11;;;;;;;5.93;3.90;;;;;;;21.35;22.22;99726.78;5079616;28;20037;-82
2021/10/09 10:22:37;;;;;;;11.43;6.22;;;;;;;19.67;23.28;99718.81;5083959;28;20036;-82
2021/10/09 10:25:24;;;;;;;10.55;5.43;;;;;;;20.28;24.60;99721.72;5078171;28;20051;-81
2021/10/09 10:28:02;;;;;;;10.13;5.07;;;;;;;20.29;23.22;99717.72;5080311;28;20028;-81
2021/10/09 10:30:37;;;;;;;8.82;4.38;;;;;;;22.22;21.02;99703.22;5080029;28;20028;-83
2021/10/09 10:33:06;;;;;;;12.50;5.47;;;;;;;20.85;22.33;99696.44;5082128;28;20035;-81
2021/10/09 10:35:32;;;;;;;6.60;5.28;;;;;;;19.79;23.63;99711.13;5077229;28;20082;-81
2021/10/09 10:38:06;;;;;;;12.57;7.00;;;;;;;18.25;25.65;99717.19;5080505;28;20032;-81
2021/10/09 10:41:03;;;;;;;8.60;5.63;;;;;;;17.97;25.60;99704.50;5087135;28;20520;-82
2021/10/09 10:43:34;;;;;;;11.82;6.38;;;;;;;18.37;25.37;99702.44;5086304;28;20036;-82
2021/10/09 10:46:05;;;;;;;12.35;7.15;;;;;;;19.09;24.41;99710.28;5082556;28;20400;-80
2021/10/09 10:49:02;;;;;;;;;;;;;;;20.68;22.55;99700.53;5080068;28;20032;-80
2021/10/09 10:51:37;;;;;;;8.48;4.65;;;;;;;20.13;21.80;99703.03;5084365;28;20029;-81
2021/10/09 10:56:36;;;;;;;7.53;4.80;;;;;;;18.36;24.24;99689.72;5080131;28;20111;-81
2021/10/09 10:59:44;;;;;;;8.85;4.65;;;;;;;19.18;23.67;99704.53;5086508;28;20025;-81
2021/10/09 11:02:38;;;;;;;9.27;4.78;;;;;;;19.81;22.87;99708.75;5084563;28;20118;-81
2021/10/09 11:05:10;;;;;;;7.35;4.47;;;;;;;20.11;21.39;99697.84;5084453;28;20437;-82
2021/10/09 11:07:38;;;;;;;9.80;4.90;;;;;;;19.38;23.34;99699.84;5082640;28;20043;-82
2021/10/09 11:10:10;;;;;;;7.65;4.10;;;;;;;19.87;22.28;99698.94;5076974;28;20040;-82
2021/10/09 11:12:45;;;;;;;7.47;3.85;;;;;;;19.70;21.62;99690.19;5082294;28;20037;-82
2021/10/09 11:15:20;;;;;;;9.52;4.30;;;;;;;19.56;23.68;99689.91;5086577;28;20535;-81
2021/10/09 11:17:56;;;;;;;7.78;4.70;;;;;;;20.06;21.66;99703.72;5081004;28;20077;-81
2021/10/09 11:20:36;;;;;;;8.23;4.38;;;;;;;20.30;20.98;99694.25;5082275;28;20521;-81
2021/10/09 11:23:08;;;;;;;8.00;4.63;;;;;;;20.19;21.27;99684.81;5085729;28;20028;-82
2021/10/09 11:25:36;;;;;;;7.78;4.00;;;;;;;21.80;21.10;99691.50;5080104;28;20170;-81
2021/10/09 11:28:06;;;;;;;11.10;5.18;;;;;;;21.29;20.91;99683.63;5086011;28;20036;-81
2021/10/09 11:30:33;;;;;;;8.13;4.63;;;;;;;20.55;21.42;99692.72;5085028;28;20062;-81
2021/10/09 11:33:00;;;;;;;8.52;4.40;;;;;;;21.60;19.73;99681.66;5083730;28;20036;-81
2021/10/09 11:35:36;;;;;;;6.53;4.15;;;;;;;20.85;21.22;99688.06;5083377;28;20081;-81
2021/10/09 11:38:05;;;;;;;7.38;4.60;;;;;;;20.55;20.75;99682.38;5083301;28;20516;-81
2021/10/09 11:40:42;;;;;;;6.03;3.05;;;;;;;21.90;21.18;99682.47;5081471;28;20025;-81
2021/10/09 11:46:13;;;;;;;9.05;4.07;;;;;;;21.92;19.43;99661.31;5060222;28;20054;-80
2021/10/09 11:54:50;;;;;;;6.78;3.70;;;;;;;21.37;21.41;99652.97;5078873;28;20058;-81
2021/10/09 11:57:13;;;;;;;9.00;4.85;;;;;;;20.26;21.52;99654.31;5086277;28;20394;-82
2021/10/09 11:59:40;;;;;;;9.75;4.65;;;;;;;20.35;21.40;99649.34;5078274;28;20048;-80
2021/10/09 12:02:07;;;;;;;6.88;4.20;;;;;;;20.77;21.16;99650.03;5074083;28;20032;-81
2021/10/09 12:04:34;;;;;;;6.70;3.90;;;;;;;21.35;22.00;99642.19;5079916;28;20128;-81
2021/10/09 12:07:08;;;;;;;10.50;4.90;;;;;;;21.12;21.64;99647.84;5076990;28;20036;-80
2021/10/09 12:09:43;;;;;;;10.07;4.40;;;;;;;21.47;21.65;99655.13;5075989;28;20497;-81
2021/10/09 12:12:21;;;;;;;8.68;4.03;;;;;;;21.78;20.25;99649.94;5071746;28;20486;-81
2021/10/09 12:14:49;;;;;;;7.97;4.38;;;;;;;21.42;20.75;99652.66;5076904;28;20089;-81
2021/10/09 12:17:16;;;;;;;7.65;4.63;;;;;;;21.54;21.26;99647.63;5072800;28;20078;-81
2021/10/09 12:19:43;;;;;;;6.93;4.30;;;;;;;20.34;22.19;99653.28;5077559;28;20043;-81
2021/10/09 12:22:14;;;;;;;7.32;4.15;;;;;;;21.78;21.07;99649.94;5082143;28;20594;-80
2021/10/09 12:24:49;;;;;;;10.27;4.55;;;;;;;20.47;22.56;99649.94;5075415;28;20033;-81
2021/10/09 12:27:18;;;;;;;10.93;4.75;;;;;;;22.54;19.92;99642.78;5077999;28;20036;-80
2021/10/09 12:30:07;;;;;;;8.52;4.57;;;;;;;20.98;20.47;99635.63;5085140;28;20056;-80
2021/10/09 12:32:49;;;;;;;8.90;4.88;;;;;;;22.89;19.98;99631.13;5076646;28;20557;-81
2021/10/09 12:35:26;;;;;;;7.85;4.47;;;;;;;21.75;20.93;99644.31;5083288;28;20047;-81
2021/10/09 12:38:01;;;;;;;7.47;4.70;;;;;;;20.09;22.12;99646.41;5086062;28;20028;-81
2021/10/09 12:40:48;;;;;;;10.15;5.57;;;;;;;19.47;23.17;99653.91;5082878;28;20032;-81
2021/10/09 12:43:20;;;;;;;9.85;4.22;;;;;;;21.39;21.99;99647.81;5082195;28;20459;-80
2021/10/09 12:45:46;;;;;;;8.60;5.22;;;;;;;20.83;21.64;99642.16;5083364;28;20389;-81
2021/10/09 12:48:13;;;;;;;11.60;6.43;;;;;;;20.69;21.78;99642.75;5079266;28;20032;-80
2021/10/09 12:50:42;;;;;;;8.57;5.55;;;;;;;20.30;21.66;99644.88;5083364;28;20060;-81
2021/10/09 12:53:08;;;;;;;12.13;5.05;;;;;;;20.47;22.30;99635.97;5079691;28;20040;-81
2021/10/09 12:55:36;;;;;;;12.52;5.65;;;;;;;20.53;21.68;99631.72;5079098;28;20033;-81
2021/10/09 12:58:09;;;;;;;11.45;5.82;;;;;;;21.10;21.01;99641.00;5079161;28;20039;-81
2021/10/09 13:00:38;;;;;;;8.93;5.53;;;;;;;20.70;21.46;99635.97;5084698;28;20036;-81
2021/10/09 13:03:05;;;;;;;8.07;4.95;;;;;;;21.89;21.22;99636.91;5083186;28;20028;-81
2021/10/09 13:05:32;;;;;;;9.75;4.60;;;;;;;22.59;19.74;99624.84;5082414;28;20504;-81
2021/10/09 13:08:00;;;;;;;8.73;4.15;;;;;;;22.07;20.15;99634.34;5083301;28;20081;-81
2021/10/09 13:10:29;;;;;;;7.47;4.25;;;;;;;22.83;19.83;99632.66;5080169;28;20477;-81
2021/10/09 13:12:55;;;;;;;9.82;4.30;;;;;;;23.29;19.70;99630.97;5080890;28;20056;-80
2021/10/09 13:15:21;;;;;;;12.98;4.30;;;;;;;23.35;19.73;99623.84;5086664;28;20027;-80
2021/10/09 13:17:49;;;;;;;7.25;3.70;;;;;;;22.44;19.97;99620.31;5077530;28;20040;-80
2021/10/09 13:20:17;;;;;;;8.88;4.57;;;;;;;21.38;20.91;99629.47;5084005;28;20039;-81
2021/10/09 13:22:44;;;;;;;12.63;4.53;;;;;;;22.90;19.50;99624.31;5077055;28;20120;-80
2021/10/09 13:25:11;;;;;;;11.80;5.55;;;;;;;21.93;19.49;99631.38;5079387;28;20040;-80
2021/10/09 13:27:37;;;;;;;12.30;5.68;;;;;;;20.90;20.65;99631.09;5079563;28;20067;-80
2021/10/09 13:30:04;;;;;;;6.88;4.20;;;;;;;21.09;20.95;99626.25;5083962;28;20035;-80
2021/10/09 13:32:30;;;;;;;8.13;4.68;;;;;;;21.40;20.45;99629.88;5074481;28;20031;-81
2021/10/09 13:34:56;;;;;;;8.23;4.32;;;;;;;22.80;19.62;99618.66;5081442;28;20032;-80
2021/10/09 13:37:25;;;;;;;11.65;4.82;;;;;;;21.69;20.10;99623.47;5076873;28;20032;-80
2021/10/09 13:39:56;;;;;;;6.70;4.15;;;;;;;22.26;20.01;99617.34;5078241;28;20093;-80
2021/10/09 13:42:24;;;;;;;9.93;4.45;;;;;;;22.29;19.49;99615.75;5077793;28;20031;-80
2021/10/09 13:44:50;;;;;;;8.50;5.25;;;;;;;21.45;20.55;99613.56;5077033;28;20089;-81
2021/10/09 13:47:17;;;;;;;7.72;3.80;;;;;;;21.45;21.06;99616.38;5077088;28;20040;-80
2021/10/09 13:49:43;;;;;;;12.40;5.82;;;;;;;21.77;20.23;99614.81;5075729;28;20519;-81
2021/10/09 13:52:09;;;;;;;9.63;5.72;;;;;;;21.89;19.96;99616.56;5080523;28;20071;-80
2021/10/09 13:54:35;;;;;;;8.00;4.88;;;;;;;21.38;20.32;99610.69;5075783;28;20074;-81
2021/10/09 13:57:01;;;;;;;6.68;4.32;;;;;;;22.97;19.41;99604.75;5073068;28;20036;-81
2021/10/09 13:59:28;;;;;;;11.57;3.60;;;;;;;23.17;19.23;99608.09;5077949;28;20482;-80
2021/10/09 14:01:54;;;;;;;14.63;6.88;;;;;;;20.13;21.50;99608.25;5076535;28;21990;-80
2021/10/09 14:04:20;;;;;;;7.10;4.43;;;;;;;20.71;21.27;99604.09;5078503;28;20480;-80
2021/10/09 14:06:46;;;;;;;9.73;4.97;;;;;;;22.60;19.38;99601.25;5074074;28;20039;-80
2021/10/09 14:09:12;;;;;;;13.45;5.15;;;;;;;21.88;20.03;99617.72;5078994;28;20037;-81
2021/10/09 14:11:39;;;;;;;8.68;5.47;;;;;;;20.71;21.22;99618.06;5077791;28;20365;-80
2021/10/09 14:14:06;;;;;;;10.90;5.60;;;;;;;20.49;21.88;99614.09;5075091;28;20036;-80